Time;durP1;ratioP1;P1;durP2;ratioP2;P2;SDS_P1;SDS_P2;PMS_P1;PMS_P2;Temp;Humidity;BMP_temperature;BMP_pressure;BME280_temperature;BME280_humidity;BME280_pressure;Samples;Min_cycle;Max_cycle;Signal;HPM_P1;HPM_P2
2022/09/19 00:02:13;;;;;;;4.32;0.60;;;;;;;7.75;100.00;97703.94;15266447;19;20019;-77
2022/09/19 00:07:17;;;;;;;1.90;0.50;;;;;;;7.74;100.00;97710.31;15267093;19;20736;-77
2022/09/19 00:12:25;;;;;;;2.40;0.70;;;;;;;7.68;100.00;97709.13;15274537;19;20121;-75
2022/09/19 00:17:29;;;;;;;1.92;0.52;;;;;;;7.74;100.00;97704.94;15279835;19;20018;-76
2022/09/19 00:22:34;;;;;;;2.60;0.50;;;;;;;7.86;100.00;97703.66;15285339;19;20542;-77
2022/09/19 00:27:41;;;;;;;2.50;0.60;;;;;;;7.94;100.00;97714.41;15277331;19;20035;-76
2022/09/19 00:32:46;;;;;;;0.90;0.43;;;;;;;7.91;100.00;97701.34;15275615;19;20507;-78
2022/09/19 00:37:51;;;;;;;2.50;0.50;;;;;;;7.93;100.00;97718.13;15282149;19;20032;-77
2022/09/19 00:43:00;;;;;;;0.85;0.40;;;;;;;7.95;100.00;97717.94;15282205;19;20086;-77
2022/09/19 00:48:04;;;;;;;1.38;0.50;;;;;;;7.98;100.00;97709.59;15275317;19;20018;-78
2022/09/19 00:53:13;;;;;;;1.48;0.40;;;;;;;7.95;100.00;97726.81;15285037;19;20098;-76
2022/09/19 00:58:27;;;;;;;1.88;0.40;;;;;;;7.93;100.00;97731.53;15277140;19;20182;-77
2022/09/19 01:03:33;;;;;;;1.33;0.30;;;;;;;7.95;100.00;97742.09;15272414;19;20349;-78
2022/09/19 01:09:02;;;;;;;3.83;0.60;;;;;;;7.90;100.00;97747.94;15276500;19;20369;-78
2022/09/19 01:14:25;;;;;;;1.45;0.35;;;;;;;7.88;100.00;97736.53;15277149;19;20024;-54
2022/09/19 01:20:05;;;;;;;1.23;0.40;;;;;;;7.88;100.00;97741.06;15273820;19;20006;-55
2022/09/19 01:25:15;;;;;;;0.77;0.30;;;;;;;7.84;100.00;97751.25;15274710;19;20006;-55
2022/09/19 01:30:23;;;;;;;1.73;0.40;;;;;;;7.82;100.00;97770.19;15271190;19;20031;-55
2022/09/19 01:35:32;;;;;;;0.93;0.30;;;;;;;7.77;100.00;97766.31;15268288;19;20469;-53
2022/09/19 01:40:40;;;;;;;0.60;0.20;;;;;;;7.75;100.00;97779.03;15275961;19;20010;-56
2022/09/19 01:45:51;;;;;;;0.73;0.30;;;;;;;7.72;100.00;97783.69;15273753;19;20006;-56
2022/09/19 01:51:18;;;;;;;1.05;0.20;;;;;;;7.71;100.00;97810.69;15271923;19;20525;-54
2022/09/19 01:56:36;;;;;;;0.40;0.10;;;;;;;7.69;100.00;97796.59;15273659;19;20002;-55
2022/09/19 02:01:52;;;;;;;1.05;0.20;;;;;;;7.69;100.00;97805.50;15276096;19;20066;-53
2022/09/19 02:07:07;;;;;;;0.52;0.20;;;;;;;7.67;100.00;97820.88;15268267;19;20022;-55
2022/09/19 02:12:14;;;;;;;0.38;0.20;;;;;;;7.66;100.00;97829.94;15270318;19;20369;-54
2022/09/19 02:17:26;;;;;;;0.40;0.10;;;;;;;7.66;100.00;97831.75;15269533;19;20014;-54
2022/09/19 02:22:35;;;;;;;0.93;0.28;;;;;;;7.65;100.00;97844.31;15268996;19;20014;-53
2022/09/19 02:27:50;;;;;;;0.50;0.30;;;;;;;7.66;100.00;97859.41;15272065;19;20006;-52
2022/09/19 02:32:59;;;;;;;0.68;0.40;;;;;;;7.68;100.00;97860.09;15273105;19;20010;-52
2022/09/19 02:38:09;;;;;;;0.52;0.40;;;;;;;7.74;100.00;97866.69;15269690;19;20037;-54
2022/09/19 02:43:23;;;;;;;1.27;0.60;;;;;;;7.78;100.00;97859.16;15267153;19;20034;-54
2022/09/19 02:48:37;;;;;;;2.35;0.40;;;;;;;7.83;100.00;97872.91;15268698;19;20003;-55
2022/09/19 02:53:46;;;;;;;1.40;0.47;;;;;;;7.88;100.00;97884.03;15271049;19;20014;-55
2022/09/19 02:58:59;;;;;;;0.52;0.40;;;;;;;7.90;100.00;97879.34;15267559;19;20121;-55
2022/09/19 03:04:25;;;;;;;0.65;0.40;;;;;;;7.94;100.00;97894.13;15269901;19;20007;-54
2022/09/19 03:09:34;;;;;;;1.88;0.40;;;;;;;7.99;100.00;97897.19;15269228;19;20810;-54
2022/09/19 03:14:45;;;;;;;1.87;0.67;;;;;;;8.01;100.00;97892.50;15263907;19;20039;-55
2022/09/19 03:19:56;;;;;;;2.05;0.30;;;;;;;8.02;100.00;97898.69;15269698;19;20010;-53
2022/09/19 03:25:03;;;;;;;1.15;0.50;;;;;;;8.03;100.00;97908.44;15269482;19;20093;-56
2022/09/19 03:30:11;;;;;;;1.05;0.40;;;;;;;8.03;100.00;97921.84;15259734;19;20010;-56
2022/09/19 03:35:24;;;;;;;1.08;0.50;;;;;;;8.01;100.00;97924.69;15266307;19;20513;-55
2022/09/19 03:40:30;;;;;;;1.17;0.70;;;;;;;8.00;100.00;97939.09;15267625;19;20007;-56
2022/09/19 03:45:36;;;;;;;1.15;0.55;;;;;;;7.99;100.00;97950.81;15260818;19;20710;-53
2022/09/19 03:50:48;;;;;;;2.38;0.88;;;;;;;7.97;100.00;97966.22;14771282;19;10000554;-55
2022/09/19 03:55:57;;;;;;;0.77;0.70;;;;;;;7.96;100.00;97977.94;15291910;19;20866;-55
2022/09/19 04:01:11;;;;;;;1.67;0.70;;;;;;;7.98;100.00;97991.22;15296143;19;20107;-56
2022/09/19 04:06:21;;;;;;;1.80;1.10;;;;;;;7.98;100.00;97988.53;15295536;19;20025;-56
2022/09/19 04:11:32;;;;;;;1.20;1.10;;;;;;;8.01;100.00;97997.13;15297233;19;20454;-56
2022/09/19 04:16:46;;;;;;;1.63;1.30;;;;;;;8.06;100.00;98001.16;15290142;19;20007;-57
2022/09/19 04:22:17;;;;;;;2.88;1.30;;;;;;;8.08;100.00;98004.53;15296421;19;20006;-50
2022/09/19 04:27:45;;;;;;;2.92;1.50;;;;;;;8.10;100.00;98008.75;15293346;19;20011;-56
2022/09/19 04:32:51;;;;;;;3.45;1.70;;;;;;;8.12;100.00;98019.34;15280169;19;20030;-55
2022/09/19 04:38:00;;;;;;;2.70;1.60;;;;;;;8.13;100.00;98023.69;15282798;19;20430;-55
2022/09/19 04:43:05;;;;;;;2.05;1.50;;;;;;;8.12;100.00;98038.94;15281742;19;20014;-54
2022/09/19 04:48:12;;;;;;;2.75;1.77;;;;;;;8.15;100.00;98040.50;15275942;19;20021;-54
2022/09/19 04:53:23;;;;;;;3.13;1.73;;;;;;;8.16;100.00;98056.44;15273252;19;20724;-55
2022/09/19 04:58:31;;;;;;;6.28;2.15;;;;;;;8.18;100.00;98069.69;15274479;19;20481;-54
2022/09/19 05:03:38;;;;;;;3.13;1.95;;;;;;;8.21;100.00;98073.91;15269747;19;20014;-53
2022/09/19 05:08:47;;;;;;;5.80;2.20;;;;;;;8.21;100.00;98088.16;15276843;19;20037;-52
2022/09/19 05:14:01;;;;;;;2.70;2.20;;;;;;;8.23;100.00;98104.97;15271817;19;20052;-46
2022/09/19 05:19:09;;;;;;;2.78;1.85;;;;;;;8.25;100.00;98111.03;15273785;19;20006;-47
2022/09/19 05:24:18;;;;;;;2.25;1.80;;;;;;;8.27;100.00;98121.59;15268967;19;20458;-46
2022/09/19 05:29:23;;;;;;;3.38;1.80;;;;;;;8.30;100.00;98127.47;15271766;19;20360;-50
2022/09/19 05:34:39;;;;;;;2.20;1.73;;;;;;;8.32;100.00;98125.50;15276402;19;20035;-47
2022/09/19 05:39:50;;;;;;;3.58;1.67;;;;;;;8.35;100.00;98139.63;15270283;19;20034;-48
2022/09/19 05:45:20;;;;;;;2.08;1.80;;;;;;;8.38;100.00;98150.88;15274821;19;20044;-47
2022/09/19 05:50:26;;;;;;;3.65;1.90;;;;;;;8.38;100.00;98147.38;15271490;19;20078;-49
2022/09/19 05:55:36;;;;;;;3.25;2.03;;;;;;;8.37;100.00;98149.19;15271503;19;20022;-50
2022/09/19 06:01:00;;;;;;;4.75;2.10;;;;;;;8.38;100.00;98155.41;15276982;19;20013;-48
2022/09/19 06:06:12;;;;;;;4.55;2.30;;;;;;;8.37;100.00;98176.03;15273100;19;20027;-48
2022/09/19 06:11:20;;;;;;;4.45;2.42;;;;;;;8.38;100.00;98168.84;15270152;19;20032;-50
2022/09/19 06:16:26;;;;;;;5.00;2.90;;;;;;;8.35;100.00;98182.56;15272005;19;20086;-47
2022/09/19 06:21:50;;;;;;;3.83;2.47;;;;;;;8.36;100.00;98185.06;15278892;19;20346;-48
2022/09/19 06:26:58;;;;;;;3.70;2.30;;;;;;;8.38;100.00;98201.03;15270527;19;20015;-46
2022/09/19 06:32:05;;;;;;;4.60;2.55;;;;;;;8.42;100.00;98197.03;15274137;19;20026;-49
2022/09/19 06:37:16;;;;;;;2.75;2.20;;;;;;;8.43;100.00;98206.78;15270254;19;20014;-47
2022/09/19 06:42:24;;;;;;;3.83;2.05;;;;;;;8.46;100.00;98204.66;15271490;19;20031;-45
2022/09/19 06:47:57;;;;;;;;;;;;;;;8.54;100.00;98220.00;15273542;19;20022;-46
2022/09/19 06:53:34;;;;;;;2.90;2.10;;;;;;;8.60;100.00;98219.41;15273748;19;19922;-45
2022/09/19 06:58:45;;;;;;;2.58;1.70;;;;;;;8.64;100.00;98222.63;15266128;19;20025;-46
2022/09/19 07:03:50;;;;;;;1.75;1.35;;;;;;;8.70;100.00;98237.28;15275812;19;20424;-46
2022/09/19 07:09:01;;;;;;;;;;;;;;;8.77;100.00;98243.72;15273148;19;20470;-48
2022/09/19 07:14:09;;;;;;;4.82;1.35;;;;;;;8.82;100.00;98228.00;15269395;19;19928;-46
2022/09/19 16:37:41;;;;;;;2.15;0.70;;;;;;;11.63;100.00;98342.16;15289462;19;20430;-53
2022/09/19 16:42:46;;;;;;;2.38;0.70;;;;;;;11.61;100.00;98337.94;15278318;19;20699;-54
2022/09/19 16:47:53;;;;;;;1.58;0.60;;;;;;;11.60;100.00;98350.59;15285561;19;20002;-52
2022/09/19 16:53:00;;;;;;;1.85;0.77;;;;;;;11.58;100.00;98355.34;15278237;19;20018;-54
2022/09/19 16:58:13;;;;;;;2.15;0.70;;;;;;;11.54;100.00;98372.84;15281202;19;20010;-52
2022/09/19 17:03:19;;;;;;;2.28;0.68;;;;;;;11.57;100.00;98386.03;15281842;19;20010;-54
2022/09/19 17:08:27;;;;;;;2.65;0.55;;;;;;;11.52;100.00;98385.66;15281639;19;20049;-53
2022/09/19 17:13:32;;;;;;;1.65;0.68;;;;;;;11.47;100.00;98391.56;15276046;19;20015;-53
2022/09/19 17:18:39;;;;;;;1.23;0.45;;;;;;;11.45;100.00;98409.78;15284489;19;20007;-55
2022/09/19 17:23:47;;;;;;;2.38;0.90;;;;;;;11.21;100.00;98424.09;15279306;19;20014;-53
2022/09/19 17:28:54;;;;;;;1.35;0.55;;;;;;;11.08;100.00;98417.31;15281223;19;20018;-51
2022/09/19 17:33:59;;;;;;;2.38;0.57;;;;;;;10.94;100.00;98423.31;15278649;19;20035;-54
2022/09/19 17:39:06;;;;;;;2.05;0.60;;;;;;;10.78;100.00;98422.25;15275862;19;20026;-55
2022/09/19 17:44:12;;;;;;;1.20;0.50;;;;;;;10.58;100.00;98431.59;15273671;19;20038;-53
2022/09/19 17:49:17;;;;;;;0.98;0.40;;;;;;;10.36;100.00;98430.28;15278882;19;20466;-54
2022/09/19 17:54:27;;;;;;;0.45;0.30;;;;;;;10.25;100.00;98424.16;15273876;19;20023;-51
2022/09/19 17:59:36;;;;;;;0.97;0.37;;;;;;;10.12;100.00;98431.81;13319441;19;5033713;-53
